createdAt,value
2022-10-08T00:03:14.223Z,7.28
2022-10-08T00:08:10.873Z,6.68
2022-10-08T00:13:07.095Z,7.95
2022-10-08T00:18:03.460Z,6.70
2022-10-08T00:23:01.795Z,7.72
2022-10-08T00:27:58.051Z,7.47
2022-10-08T00:32:59.814Z,6.88
2022-10-08T00:37:56.474Z,7.32
2022-10-08T00:42:53.537Z,7.25
2022-10-08T00:47:49.835Z,8.07
2022-10-08T00:53:01.169Z,6.80
2022-10-08T00:58:01.931Z,7.07
2022-10-08T01:02:58.727Z,7.28
2022-10-08T01:08:01.772Z,7.82
2022-10-08T01:13:01.462Z,8.07
2022-10-08T01:18:00.743Z,7.25
2022-10-08T01:23:15.415Z,7.50
2022-10-08T01:28:14.491Z,8.13
2022-10-08T01:33:17.474Z,8.30
2022-10-08T01:38:15.813Z,8.43
2022-10-08T01:43:13.879Z,9.02
2022-10-08T01:48:15.040Z,8.00
2022-10-08T01:53:13.470Z,8.05
2022-10-08T01:58:13.762Z,7.90
2022-10-08T02:03:12.874Z,9.38
2022-10-08T02:08:09.095Z,7.80
2022-10-08T02:13:05.382Z,8.32
2022-10-08T02:18:28.288Z,7.95
2022-10-08T02:23:29.669Z,9.30
2022-10-08T02:28:36.409Z,9.20
2022-10-08T02:33:35.670Z,9.27
2022-10-08T02:38:34.672Z,8.45
2022-10-08T02:43:33.188Z,8.85
2022-10-08T02:48:31.265Z,9.85
2022-10-08T02:53:27.530Z,9.65
2022-10-08T02:58:23.873Z,9.80
2022-10-08T03:03:28.156Z,10.23
2022-10-08T03:08:24.641Z,9.88
2022-10-08T03:13:21.531Z,9.52
2022-10-08T03:18:18.219Z,9.75
2022-10-08T03:23:15.899Z,10.20
2022-10-08T03:28:12.152Z,9.45
2022-10-08T03:33:08.367Z,10.05
2022-10-08T03:38:04.667Z,9.88
2022-10-08T03:43:00.961Z,11.15
2022-10-08T03:47:57.196Z,12.18
2022-10-08T03:52:53.399Z,11.27
2022-10-08T03:57:49.620Z,11.43
2022-10-08T04:02:48.980Z,11.60
2022-10-08T04:07:45.466Z,14.18
2022-10-08T04:12:41.717Z,12.32
2022-10-08T04:17:37.902Z,12.30
2022-10-08T04:22:34.129Z,13.60
2022-10-08T04:27:30.344Z,12.88
2022-10-08T04:32:27.334Z,13.90
2022-10-08T04:37:24.022Z,13.75
2022-10-08T04:42:20.205Z,14.13
2022-10-08T04:47:16.398Z,14.13
2022-10-08T04:52:13.767Z,13.57
2022-10-08T04:57:09.976Z,13.35
2022-10-08T05:02:06.323Z,14.57
2022-10-08T05:07:02.574Z,13.57
2022-10-08T05:11:58.856Z,14.70
2022-10-08T05:16:55.495Z,15.35
2022-10-08T05:21:51.737Z,16.45
2022-10-08T05:27:03.194Z,15.98
2022-10-08T05:31:59.557Z,16.23
2022-10-08T05:36:55.836Z,16.15
2022-10-08T05:41:53.352Z,18.48
2022-10-08T05:46:49.632Z,17.95
2022-10-08T05:51:46.283Z,17.02
2022-10-08T05:56:42.615Z,17.25
2022-10-08T06:01:38.851Z,18.73
2022-10-08T06:06:35.593Z,17.70
2022-10-08T06:11:32.658Z,17.75
2022-10-08T06:16:29.655Z,17.83
2022-10-08T06:21:26.531Z,18.50
2022-10-08T06:26:23.752Z,18.27
2022-10-08T06:31:20.516Z,18.48
2022-10-08T06:36:23.423Z,17.70
2022-10-08T06:41:20.378Z,18.95
2022-10-08T06:46:17.306Z,19.75
2022-10-08T06:51:14.685Z,22.10
2022-10-08T06:56:14.407Z,20.88
2022-10-08T07:01:12.682Z,21.20
2022-10-08T07:06:10.091Z,21.65
2022-10-08T07:11:10.813Z,23.38
2022-10-08T07:16:11.482Z,24.08
2022-10-08T07:21:08.832Z,24.55
2022-10-08T07:26:06.668Z,27.58
2022-10-08T07:31:16.913Z,26.38
2022-10-08T07:36:14.475Z,26.13
2022-10-08T07:41:11.985Z,23.38
2022-10-08T07:46:09.163Z,25.80
2022-10-08T07:51:09.624Z,24.73
2022-10-08T07:56:06.456Z,25.02
2022-10-08T08:01:04.125Z,22.73
2022-10-08T08:06:01.403Z,21.73
2022-10-08T08:10:58.591Z,22.38
2022-10-08T08:15:58.669Z,19.70
2022-10-08T08:20:59.021Z,19.42
2022-10-08T08:25:55.199Z,17.15
2022-10-08T08:30:51.466Z,16.15
2022-10-08T08:35:53.552Z,15.23
2022-10-08T08:40:49.931Z,16.00
2022-10-08T08:45:47.801Z,15.30
2022-10-08T08:50:48.716Z,13.30
2022-10-08T08:55:46.566Z,13.07
2022-10-08T09:00:44.827Z,13.77
2022-10-08T09:05:42.758Z,13.10
2022-10-08T09:10:42.665Z,12.27
2022-10-08T09:15:39.037Z,11.30
2022-10-08T09:20:40.032Z,11.55
2022-10-08T09:25:36.916Z,10.93
2022-10-08T09:30:38.135Z,10.18
2022-10-08T09:35:39.777Z,9.35
2022-10-08T09:40:36.091Z,9.30
2022-10-08T09:45:39.287Z,8.73
2022-10-08T09:50:37.164Z,8.43
2022-10-08T09:55:36.586Z,8.27
2022-10-08T10:00:35.369Z,7.32
2022-10-08T10:05:33.430Z,7.38
2022-10-08T10:10:32.844Z,6.28
2022-10-08T10:15:34.155Z,7.82
2022-10-08T10:20:32.698Z,6.82
2022-10-08T10:25:47.357Z,6.55
2022-10-08T10:30:57.126Z,6.70
2022-10-08T10:35:55.911Z,7.07
2022-10-08T10:41:03.997Z,6.63
2022-10-08T10:46:13.219Z,6.65
2022-10-08T10:51:26.411Z,6.13
2022-10-08T11:01:35.380Z,6.43
2022-10-08T11:06:34.745Z,6.65
2022-10-08T11:11:38.407Z,6.53
2022-10-08T11:16:34.572Z,6.97
2022-10-08T11:21:50.312Z,7.20
2022-10-08T11:26:46.555Z,8.68
2022-10-08T11:31:44.991Z,17.48
2022-10-08T11:36:47.639Z,21.30
2022-10-08T11:41:56.533Z,26.15
2022-10-08T11:46:52.732Z,35.38
2022-10-08T11:51:51.119Z,50.00
2022-10-08T11:56:52.468Z,50.83
2022-10-08T12:01:53.232Z,47.20
2022-10-08T12:06:59.921Z,33.63
2022-10-08T12:11:56.220Z,17.67
2022-10-08T12:16:55.592Z,21.52
2022-10-08T12:21:51.987Z,24.50
2022-10-08T12:27:08.193Z,12.95
2022-10-08T12:32:04.579Z,10.73
2022-10-08T12:37:15.802Z,10.45
2022-10-08T12:42:20.679Z,7.63
2022-10-08T12:47:25.827Z,6.78
2022-10-08T12:52:22.882Z,6.70
2022-10-08T12:57:22.169Z,6.68
2022-10-08T13:02:29.006Z,7.65
2022-10-08T13:07:28.112Z,7.85
2022-10-08T13:12:24.802Z,6.78
2022-10-08T13:17:31.015Z,6.05
2022-10-08T13:22:27.207Z,6.22
2022-10-08T13:27:28.239Z,5.30
2022-10-08T13:32:26.127Z,5.22
2022-10-08T13:37:22.608Z,6.93
2022-10-08T13:42:20.413Z,7.70
2022-10-08T13:47:17.862Z,8.00
2022-10-08T13:52:19.278Z,10.05
2022-10-08T13:57:15.831Z,11.05
2022-10-08T14:02:14.971Z,7.10
2022-10-08T14:07:16.438Z,7.57
2022-10-08T14:12:12.740Z,6.47
2022-10-08T14:17:08.995Z,7.03
2022-10-08T14:22:05.208Z,6.00
2022-10-08T14:27:04.873Z,6.25
2022-10-08T14:32:04.504Z,7.60
2022-10-08T14:37:00.760Z,7.40
2022-10-08T14:41:58.440Z,7.28
2022-10-08T14:46:54.841Z,8.10
2022-10-08T14:51:51.116Z,7.50
2022-10-08T14:56:47.384Z,6.93
2022-10-08T15:01:43.724Z,7.80
2022-10-08T15:06:40.444Z,8.65
2022-10-08T15:11:36.702Z,8.93
2022-10-08T15:16:32.988Z,8.02
2022-10-08T15:21:29.387Z,7.50
2022-10-08T15:26:25.993Z,7.40
2022-10-08T15:31:24.948Z,7.63
2022-10-08T15:36:26.249Z,6.60
2022-10-08T15:41:23.248Z,7.72
2022-10-08T15:46:20.426Z,9.70
2022-10-08T15:51:16.724Z,11.45
2022-10-08T15:56:13.098Z,10.38
2022-10-08T16:01:11.125Z,8.48
2022-10-08T16:06:08.287Z,9.85
2022-10-08T16:11:13.737Z,10.20
2022-10-08T16:16:15.000Z,11.82
2022-10-08T16:21:12.831Z,13.52
2022-10-08T16:26:10.563Z,12.88
2022-10-08T16:31:07.971Z,15.52
2022-10-08T16:36:05.631Z,20.30
2022-10-08T16:41:18.726Z,17.63
2022-10-08T16:46:16.205Z,19.15
2022-10-08T16:51:12.599Z,20.40
2022-10-08T16:56:08.878Z,20.83
2022-10-08T17:01:06.432Z,20.55
2022-10-08T17:06:03.375Z,22.02
2022-10-08T17:11:02.673Z,22.77
2022-10-08T17:15:59.918Z,23.15
2022-10-08T17:20:56.807Z,24.30
2022-10-08T17:25:57.065Z,31.35
2022-10-08T17:30:53.672Z,31.42
2022-10-08T17:35:50.415Z,45.30
2022-10-08T17:40:46.695Z,47.78
2022-10-08T17:45:42.981Z,50.85
2022-10-08T17:50:39.255Z,59.65
2022-10-08T17:55:35.540Z,63.58
2022-10-08T18:00:31.787Z,71.00
2022-10-08T18:05:27.999Z,77.68
2022-10-08T18:10:24.327Z,78.78
2022-10-08T18:15:20.692Z,81.30
2022-10-08T18:20:16.962Z,76.93
2022-10-08T18:25:13.250Z,69.47
2022-10-08T18:30:09.871Z,78.07
2022-10-08T18:35:06.832Z,81.00
2022-10-08T18:40:03.313Z,70.53
2022-10-08T18:44:59.788Z,77.47
2022-10-08T18:49:56.003Z,75.65
2022-10-08T18:54:52.248Z,74.57
2022-10-08T18:59:48.700Z,82.53
2022-10-08T19:04:44.875Z,79.82
2022-10-08T19:09:41.236Z,75.55
2022-10-08T19:14:37.545Z,56.60
2022-10-08T19:19:33.952Z,60.28
2022-10-08T19:24:30.926Z,50.03
2022-10-08T19:29:29.105Z,50.08
2022-10-08T19:34:26.269Z,52.38
2022-10-08T19:39:24.522Z,55.33
2022-10-08T19:44:21.272Z,57.00
2022-10-08T19:49:18.198Z,59.22
2022-10-08T19:54:14.869Z,60.20
2022-10-08T19:59:11.658Z,66.03
2022-10-08T20:04:09.150Z,64.93
2022-10-08T20:09:05.958Z,69.53
2022-10-08T20:14:02.190Z,80.43
2022-10-08T20:19:02.519Z,79.55
2022-10-08T20:23:58.942Z,85.53
2022-10-08T20:28:59.087Z,84.80
2022-10-08T20:33:59.525Z,90.63
2022-10-08T20:38:55.911Z,89.15
2022-10-08T20:43:52.697Z,95.47
2022-10-08T20:48:48.987Z,94.03
2022-10-08T20:53:52.854Z,92.68
2022-10-08T20:58:49.304Z,87.47
2022-10-08T21:03:46.045Z,89.22
2022-10-08T21:08:43.847Z,84.80
2022-10-08T21:13:40.567Z,90.97
2022-10-08T21:18:36.912Z,85.88
2022-10-08T21:23:33.476Z,85.88
2022-10-08T21:28:29.779Z,88.50
2022-10-08T21:33:26.000Z,86.95
2022-10-08T21:38:22.191Z,79.50
2022-10-08T21:43:18.480Z,80.22
2022-10-08T21:48:14.776Z,86.43
2022-10-08T21:53:11.395Z,82.22
2022-10-08T21:58:07.570Z,77.13
2022-10-08T22:03:03.806Z,77.13
2022-10-08T22:08:00.011Z,76.57
2022-10-08T22:12:56.461Z,78.93
2022-10-08T22:17:52.794Z,78.20
2022-10-08T22:22:49.361Z,77.38
2022-10-08T22:27:46.333Z,78.50
2022-10-08T22:32:42.516Z,74.35
2022-10-08T22:37:38.710Z,74.57
2022-10-08T22:42:35.009Z,74.68
2022-10-08T22:47:31.256Z,73.00
2022-10-08T22:52:27.436Z,74.30
2022-10-08T22:57:23.745Z,69.85
2022-10-08T23:02:19.989Z,67.97
2022-10-08T23:07:16.243Z,70.03
2022-10-08T23:12:12.507Z,68.93
2022-10-08T23:17:08.692Z,68.80
2022-10-08T23:22:04.872Z,66.57
2022-10-08T23:27:01.111Z,67.35
2022-10-08T23:31:57.524Z,74.57
2022-10-08T23:36:53.784Z,74.70
2022-10-08T23:41:50.065Z,76.50
2022-10-08T23:46:46.269Z,77.35
2022-10-08T23:51:43.075Z,75.35
2022-10-08T23:56:39.292Z,71.05
